createdAt,value
2022-10-22T00:01:51.728Z,13.80
2022-10-22T00:06:47.260Z,13.80
2022-10-22T00:09:15.259Z,13.70
2022-10-22T00:11:42.706Z,14.70
2022-10-22T00:16:36.711Z,13.80
2022-10-22T00:19:03.781Z,13.80
2022-10-22T00:21:30.743Z,13.80
2022-10-22T00:23:58.872Z,13.80
2022-10-22T00:26:25.686Z,16.10
2022-10-22T00:28:53.270Z,13.70
2022-10-22T00:31:20.326Z,13.70
2022-10-22T00:33:47.990Z,13.60
2022-10-22T00:36:15.075Z,13.70
2022-10-22T00:38:42.655Z,15.10
2022-10-22T00:41:11.074Z,13.70
2022-10-22T00:43:57.253Z,13.70
2022-10-22T00:46:24.114Z,13.70
2022-10-22T00:48:51.441Z,15.30
2022-10-22T00:51:21.572Z,13.70
2022-10-22T00:53:50.800Z,13.70
2022-10-22T00:56:20.106Z,13.70
2022-10-22T00:58:52.525Z,14.00
2022-10-22T01:01:22.888Z,13.70
2022-10-22T01:03:50.433Z,13.70
2022-10-22T01:06:23.087Z,13.60
2022-10-22T01:08:58.090Z,13.40
2022-10-22T01:11:35.637Z,13.40
2022-10-22T01:14:12.831Z,13.40
2022-10-22T01:16:48.192Z,13.50
2022-10-22T01:19:31.780Z,13.50
2022-10-22T01:22:03.593Z,13.60
2022-10-22T01:24:41.916Z,13.40
2022-10-22T01:27:33.734Z,13.40
2022-10-22T01:30:04.918Z,13.40
2022-10-22T01:32:35.944Z,13.40
2022-10-22T01:35:06.469Z,13.40
2022-10-22T01:37:38.308Z,13.40
2022-10-22T01:40:07.441Z,13.40
2022-10-22T01:42:34.314Z,13.40
2022-10-22T01:45:02.754Z,13.40
2022-10-22T01:47:43.227Z,13.40
2022-10-22T01:50:28.775Z,13.50
2022-10-22T01:53:09.825Z,13.40
2022-10-22T01:55:44.075Z,13.40
2022-10-22T01:58:21.405Z,13.40
2022-10-22T02:00:57.456Z,13.40
2022-10-22T02:03:30.223Z,13.40
2022-10-22T02:06:01.810Z,13.40
2022-10-22T02:08:31.262Z,13.40
2022-10-22T02:10:59.746Z,14.30
2022-10-22T02:13:30.293Z,13.40
2022-10-22T02:15:59.872Z,13.40
2022-10-22T02:18:30.850Z,13.30
2022-10-22T02:20:59.764Z,13.30
2022-10-22T02:23:26.975Z,13.30
2022-10-22T02:26:00.230Z,13.30
2022-10-22T02:28:32.359Z,13.20
2022-10-22T02:31:11.416Z,13.10
2022-10-22T02:33:43.402Z,15.20
2022-10-22T02:36:11.209Z,13.40
2022-10-22T02:38:40.498Z,13.10
2022-10-22T02:41:07.390Z,13.80
2022-10-22T02:43:41.459Z,13.10
2022-10-22T02:46:10.283Z,13.10
2022-10-22T02:48:37.459Z,13.00
2022-10-22T02:53:32.249Z,13.00
2022-10-22T02:55:59.679Z,13.00
2022-10-22T03:03:22.348Z,12.90
2022-10-22T03:05:50.778Z,13.00
2022-10-22T03:08:17.936Z,12.90
2022-10-22T03:10:45.008Z,12.80
2022-10-22T03:13:11.784Z,12.90
2022-10-22T03:15:38.586Z,12.80
2022-10-22T03:18:05.479Z,12.90
2022-10-22T03:20:33.648Z,12.80
2022-10-22T03:23:01.075Z,12.80
2022-10-22T03:25:30.994Z,12.80
2022-10-22T03:28:00.701Z,12.90
2022-10-22T03:30:27.542Z,12.80
2022-10-22T03:32:54.341Z,12.80
2022-10-22T03:35:21.685Z,12.80
2022-10-22T03:37:50.362Z,12.80
2022-10-22T03:40:18.087Z,12.80
2022-10-22T03:47:39.803Z,12.70
2022-10-22T03:50:08.128Z,12.80
2022-10-22T03:52:38.958Z,12.80
2022-10-22T03:55:08.719Z,12.90
2022-10-22T03:57:35.856Z,12.80
2022-10-22T04:04:57.009Z,12.80
2022-10-22T04:09:50.972Z,12.80
2022-10-22T04:12:19.197Z,12.80
2022-10-22T04:17:13.116Z,12.80
2022-10-22T04:19:39.916Z,12.80
2022-10-22T04:22:06.747Z,15.20
2022-10-22T04:24:33.650Z,12.80
2022-10-22T04:29:28.908Z,12.80
2022-10-22T04:31:55.719Z,12.80
2022-10-22T04:34:22.529Z,14.00
2022-10-22T04:36:49.331Z,12.70
2022-10-22T04:39:16.161Z,13.80
2022-10-22T04:41:42.996Z,12.70
2022-10-22T04:44:12.468Z,12.70
2022-10-22T04:46:45.460Z,12.70
2022-10-22T04:49:12.296Z,12.60
2022-10-22T04:51:39.501Z,12.60
2022-10-22T04:54:06.503Z,13.40
2022-10-22T04:56:33.407Z,12.50
2022-10-22T04:59:02.185Z,12.50
2022-10-22T05:01:30.801Z,12.50
2022-10-22T05:04:01.322Z,12.50
2022-10-22T05:06:28.882Z,12.50
2022-10-22T05:08:58.446Z,12.40
2022-10-22T05:11:28.242Z,14.20
2022-10-22T05:13:56.045Z,12.40
2022-10-22T05:16:23.039Z,12.40
2022-10-22T05:21:20.421Z,12.30
2022-10-22T05:23:49.171Z,12.30
2022-10-22T05:26:17.862Z,12.30
2022-10-22T05:28:45.043Z,12.30
2022-10-22T05:31:13.587Z,13.20
2022-10-22T05:33:41.335Z,12.30
2022-10-22T05:36:10.846Z,12.20
2022-10-22T05:38:39.009Z,12.20
2022-10-22T05:41:07.849Z,12.20
2022-10-22T05:43:35.267Z,13.80
2022-10-22T05:46:03.892Z,12.20
2022-10-22T05:50:57.698Z,13.00
2022-10-22T05:55:53.035Z,12.20
2022-10-22T06:00:47.034Z,12.10
2022-10-22T06:03:13.877Z,13.50
2022-10-22T06:05:40.741Z,13.20
2022-10-22T06:10:34.885Z,11.90
2022-10-22T06:13:03.235Z,11.90
2022-10-22T06:15:30.063Z,12.10
2022-10-22T06:17:56.837Z,11.80
2022-10-22T06:20:23.684Z,11.80
2022-10-22T06:22:50.523Z,11.80
2022-10-22T06:25:17.576Z,11.80
2022-10-22T06:27:48.840Z,11.70
2022-10-22T06:30:17.268Z,11.60
2022-10-22T06:32:44.156Z,11.60
2022-10-22T06:35:11.014Z,11.60
2022-10-22T06:37:38.101Z,13.40
2022-10-22T06:40:05.978Z,11.50
2022-10-22T06:42:32.825Z,11.60
2022-10-22T06:44:59.635Z,11.60
2022-10-22T06:47:27.831Z,11.60
2022-10-22T06:49:54.593Z,11.60
2022-10-22T06:52:21.393Z,11.60
2022-10-22T06:54:48.198Z,11.60
2022-10-22T06:57:15.089Z,11.60
2022-10-22T06:59:41.885Z,11.70
2022-10-22T07:02:09.690Z,11.70
2022-10-22T07:04:37.847Z,12.20
2022-10-22T07:07:04.780Z,11.90
2022-10-22T07:11:58.721Z,11.90
2022-10-22T07:14:25.514Z,11.70
2022-10-22T07:16:52.265Z,13.10
2022-10-22T07:19:19.077Z,11.80
2022-10-22T07:21:47.224Z,11.80
2022-10-22T07:24:14.020Z,13.70
2022-10-22T07:29:08.133Z,11.90
2022-10-22T07:31:34.927Z,12.00
2022-10-22T07:34:01.890Z,12.00
2022-10-22T07:36:29.122Z,13.40
2022-10-22T07:38:58.828Z,12.10
2022-10-22T07:41:26.564Z,13.50
2022-10-22T07:43:53.346Z,12.10
2022-10-22T07:46:20.356Z,12.20
2022-10-22T07:48:47.182Z,12.30
2022-10-22T07:51:14.311Z,13.70
2022-10-22T07:53:41.284Z,12.30
2022-10-22T07:56:09.493Z,12.40
2022-10-22T07:58:36.587Z,12.50
2022-10-22T08:01:05.744Z,12.50
2022-10-22T08:03:33.484Z,14.10
2022-10-22T08:06:00.924Z,12.50
2022-10-22T08:08:30.831Z,12.60
2022-10-22T08:11:00.349Z,12.60
2022-10-22T08:13:30.576Z,12.70
2022-10-22T08:15:58.147Z,12.70
2022-10-22T08:18:25.333Z,12.80
2022-10-22T08:20:53.331Z,12.80
2022-10-22T08:23:24.463Z,12.90
2022-10-22T08:25:55.546Z,12.90
2022-10-22T08:30:51.217Z,13.10
2022-10-22T08:35:48.377Z,13.40
2022-10-22T08:38:15.121Z,13.50
2022-10-22T08:40:44.178Z,13.70
2022-10-22T08:43:41.549Z,13.70
2022-10-22T08:46:19.255Z,13.80
2022-10-22T08:48:49.572Z,14.00
2022-10-22T08:51:19.039Z,14.20
2022-10-22T08:53:58.796Z,14.10
2022-10-22T08:56:25.768Z,14.20
2022-10-22T08:58:58.567Z,15.00
2022-10-22T09:01:34.155Z,14.50
2022-10-22T09:04:07.125Z,14.60
2022-10-22T09:06:36.686Z,16.00
2022-10-22T09:09:11.186Z,15.40
2022-10-22T09:11:40.871Z,15.10
2022-10-22T09:17:13.348Z,15.30
2022-10-22T09:19:48.985Z,15.30
2022-10-22T09:22:26.160Z,16.50
2022-10-22T09:24:58.469Z,15.50
2022-10-22T09:27:29.817Z,15.50
2022-10-22T09:29:57.149Z,15.60
2022-10-22T09:32:26.244Z,15.60
2022-10-22T09:34:57.158Z,15.60
2022-10-22T09:37:27.485Z,15.70
2022-10-22T09:39:56.368Z,15.70
2022-10-22T09:42:23.727Z,15.80
2022-10-22T09:44:53.902Z,15.90
2022-10-22T09:47:42.942Z,16.00
2022-10-22T09:50:25.927Z,16.10
2022-10-22T09:52:58.513Z,16.20
2022-10-22T09:55:26.225Z,16.20
2022-10-22T09:57:54.734Z,16.30
2022-10-22T10:00:24.992Z,16.30
2022-10-22T10:02:57.169Z,18.50
2022-10-22T10:05:29.898Z,16.50
2022-10-22T10:07:57.038Z,16.80
2022-10-22T10:10:33.994Z,18.20
2022-10-22T10:13:12.902Z,16.80
2022-10-22T10:15:46.169Z,17.40
2022-10-22T10:18:28.618Z,16.90
2022-10-22T10:21:07.171Z,17.00
2022-10-22T10:23:40.185Z,17.20
2022-10-22T10:26:14.211Z,17.40
2022-10-22T10:28:58.009Z,17.40
2022-10-22T10:31:38.096Z,17.50
2022-10-22T10:34:18.282Z,17.60
2022-10-22T10:36:54.384Z,17.60
2022-10-22T10:39:25.326Z,17.60
2022-10-22T10:41:59.326Z,17.60
2022-10-22T10:44:45.111Z,17.60
2022-10-22T10:47:31.085Z,17.60
2022-10-22T10:50:13.955Z,17.50
2022-10-22T10:52:48.510Z,17.50
2022-10-22T10:55:28.635Z,17.70
2022-10-22T10:58:03.189Z,17.80
2022-10-22T11:00:34.284Z,18.00
2022-10-22T11:03:34.596Z,17.90
2022-10-22T11:06:09.195Z,18.10
2022-10-22T11:08:39.409Z,18.00
2022-10-22T11:11:12.833Z,18.10
2022-10-22T11:13:43.158Z,18.30
2022-10-22T11:16:16.755Z,18.50
2022-10-22T11:18:51.934Z,18.60
2022-10-22T11:21:28.803Z,18.70
2022-10-22T11:24:03.774Z,18.70
2022-10-22T11:26:38.890Z,18.70
2022-10-22T11:29:11.456Z,18.80
2022-10-22T11:31:39.467Z,18.80
2022-10-22T11:34:32.782Z,18.60
2022-10-22T11:37:04.821Z,18.60
2022-10-22T11:39:40.630Z,18.50
2022-10-22T11:42:11.285Z,18.60
2022-10-22T11:44:57.638Z,18.60
2022-10-22T11:47:26.022Z,18.60
2022-10-22T11:49:58.973Z,18.60
2022-10-22T11:52:40.067Z,19.10
2022-10-22T11:55:33.812Z,19.90
2022-10-22T11:58:01.993Z,18.40
2022-10-22T12:00:46.354Z,18.30
2022-10-22T12:03:18.186Z,18.00
2022-10-22T12:05:45.953Z,18.50
2022-10-22T12:08:25.796Z,18.00
2022-10-22T12:11:13.503Z,18.20
2022-10-22T12:14:14.025Z,18.30
2022-10-22T12:16:55.687Z,18.40
2022-10-22T12:19:31.936Z,18.90
2022-10-22T12:22:02.230Z,18.30
2022-10-22T12:24:38.212Z,18.30
2022-10-22T12:27:16.570Z,18.40
2022-10-22T12:29:44.087Z,19.30
2022-10-22T12:32:14.223Z,18.40
2022-10-22T12:34:46.416Z,19.30
2022-10-22T12:37:14.859Z,20.20
2022-10-22T12:39:44.310Z,18.80
2022-10-22T12:42:14.381Z,16.40
2022-10-22T12:44:42.947Z,18.40
2022-10-22T12:47:15.470Z,18.40
2022-10-22T12:49:46.850Z,18.30
2022-10-22T12:52:17.583Z,18.30
2022-10-22T12:54:47.742Z,18.30
2022-10-22T12:57:17.743Z,18.30
2022-10-22T12:59:49.851Z,18.10
2022-10-22T13:02:21.380Z,18.00
2022-10-22T13:05:13.825Z,17.90
2022-10-22T13:07:43.262Z,17.70
2022-10-22T13:10:19.847Z,17.70
2022-10-22T13:12:51.006Z,17.70
2022-10-22T13:15:34.548Z,17.70
2022-10-22T13:18:07.337Z,17.70
2022-10-22T13:20:37.261Z,17.80
2022-10-22T13:23:05.509Z,17.80
2022-10-22T13:25:35.340Z,17.80
2022-10-22T13:28:12.691Z,17.80
2022-10-22T13:30:51.168Z,18.00
2022-10-22T13:33:23.791Z,18.00
2022-10-22T13:35:50.607Z,18.00
2022-10-22T13:38:19.530Z,18.20
2022-10-22T13:40:48.278Z,17.80
2022-10-22T13:43:16.168Z,17.90
2022-10-22T13:45:44.551Z,17.80
2022-10-22T13:48:14.878Z,18.00
2022-10-22T13:50:41.763Z,18.90
2022-10-22T13:53:18.827Z,17.90
2022-10-22T13:55:47.544Z,20.30
2022-10-22T13:58:19.945Z,19.00
2022-10-22T14:00:50.523Z,18.00
2022-10-22T14:03:21.441Z,17.80
2022-10-22T14:05:51.050Z,17.90
2022-10-22T14:08:20.073Z,17.90
2022-10-22T14:10:48.420Z,17.90
2022-10-22T14:13:23.809Z,17.80
2022-10-22T14:15:51.807Z,19.30
2022-10-22T14:18:26.211Z,17.80
2022-10-22T14:20:54.900Z,17.90
2022-10-22T14:23:24.900Z,17.80
2022-10-22T14:25:53.968Z,17.80
2022-10-22T14:28:20.799Z,17.80
2022-10-22T14:30:48.299Z,17.80
2022-10-22T14:33:17.395Z,17.70
2022-10-22T14:35:44.612Z,17.70
2022-10-22T14:38:11.424Z,17.70
2022-10-22T14:40:40.082Z,17.60
2022-10-22T14:43:18.503Z,17.60
2022-10-22T14:45:45.345Z,17.50
2022-10-22T14:48:12.241Z,17.50
2022-10-22T14:50:39.266Z,17.50
2022-10-22T14:53:06.060Z,17.20
2022-10-22T14:55:32.930Z,17.20
2022-10-22T14:57:59.755Z,17.20
2022-10-22T15:00:28.079Z,18.60
2022-10-22T15:02:55.781Z,17.40
2022-10-22T15:05:22.998Z,17.20
2022-10-22T15:07:49.853Z,17.40
2022-10-22T15:10:16.837Z,17.20
2022-10-22T15:12:43.654Z,17.10
2022-10-22T15:15:11.061Z,18.40
2022-10-22T15:17:39.595Z,17.20
2022-10-22T15:20:07.115Z,17.20
2022-10-22T15:22:36.701Z,17.20
2022-10-22T15:25:05.700Z,17.20
2022-10-22T15:27:32.587Z,17.30
2022-10-22T15:29:59.561Z,17.10
2022-10-22T15:32:28.207Z,17.20
2022-10-22T15:34:56.509Z,17.10
2022-10-22T15:37:23.505Z,17.00
2022-10-22T15:39:50.324Z,17.10
2022-10-22T15:42:18.574Z,17.00
2022-10-22T15:44:45.786Z,17.00
2022-10-22T15:47:12.588Z,17.00
2022-10-22T15:49:41.678Z,17.10
2022-10-22T15:52:09.946Z,17.00
2022-10-22T15:54:36.827Z,17.10
2022-10-22T15:57:08.333Z,16.90
2022-10-22T16:02:03.087Z,16.80
2022-10-22T16:04:29.886Z,16.80
2022-10-22T16:06:57.898Z,16.70
2022-10-22T16:09:27.621Z,16.70
2022-10-22T16:11:54.883Z,17.40
2022-10-22T16:14:23.482Z,16.60
2022-10-22T16:16:52.020Z,16.60
2022-10-22T16:19:21.003Z,16.50
2022-10-22T16:21:50.719Z,16.50
2022-10-22T16:24:17.727Z,16.50
2022-10-22T16:26:46.412Z,16.50
2022-10-22T16:29:13.609Z,16.60
2022-10-22T16:31:42.734Z,16.40
2022-10-22T16:34:09.641Z,16.40
2022-10-22T16:36:37.074Z,16.40
2022-10-22T16:39:05.545Z,16.30
2022-10-22T16:44:06.231Z,16.30
2022-10-22T16:46:33.542Z,16.20
2022-10-22T16:49:00.489Z,16.10
2022-10-22T16:51:28.521Z,16.10
2022-10-22T16:53:56.620Z,16.10
2022-10-22T16:56:24.609Z,16.10
2022-10-22T16:58:53.540Z,16.00
2022-10-22T17:01:25.797Z,16.00
2022-10-22T17:03:54.499Z,16.00
2022-10-22T17:06:21.977Z,17.50
2022-10-22T17:08:48.899Z,15.90
2022-10-22T17:11:17.770Z,15.80
2022-10-22T17:13:45.870Z,15.70
2022-10-22T17:16:14.757Z,15.70
2022-10-22T17:18:47.378Z,15.60
2022-10-22T17:21:15.604Z,15.40
2022-10-22T17:23:43.067Z,15.40
2022-10-22T17:26:15.980Z,15.30
2022-10-22T17:31:16.962Z,15.20
2022-10-22T17:33:45.778Z,15.20
2022-10-22T17:36:13.663Z,15.20
2022-10-22T17:38:42.728Z,15.10
2022-10-22T17:41:14.571Z,15.00
2022-10-22T17:46:11.124Z,15.00
2022-10-22T17:48:37.925Z,14.90
2022-10-22T17:51:07.887Z,14.90
2022-10-22T17:53:34.877Z,14.80
2022-10-22T17:56:03.150Z,14.70
2022-10-22T17:58:30.768Z,15.30
2022-10-22T18:03:25.363Z,14.50
2022-10-22T18:08:23.291Z,14.40
2022-10-22T18:10:50.262Z,15.10
2022-10-22T18:13:17.139Z,14.40
2022-10-22T18:20:38.332Z,14.20
2022-10-22T18:23:05.176Z,15.00
2022-10-22T18:25:33.375Z,15.60
2022-10-22T18:30:27.313Z,14.10
2022-10-22T18:37:48.634Z,14.00
2022-10-22T18:42:44.886Z,14.00
2022-10-22T18:45:12.086Z,15.50
2022-10-22T18:47:41.080Z,13.90
2022-10-22T18:50:09.119Z,13.80
2022-10-22T18:55:03.492Z,13.80
2022-10-22T18:57:30.506Z,13.70
2022-10-22T18:59:59.560Z,13.70
2022-10-22T19:02:26.478Z,13.70
2022-10-22T19:07:20.452Z,13.60
2022-10-22T19:09:47.378Z,13.60
2022-10-22T19:12:15.768Z,13.60
2022-10-22T19:14:42.797Z,13.60
2022-10-22T19:17:12.023Z,13.60
2022-10-22T19:19:38.843Z,13.60
2022-10-22T19:22:05.665Z,13.60
2022-10-22T19:24:32.475Z,13.50
2022-10-22T19:26:59.267Z,13.80
2022-10-22T19:29:26.073Z,13.50
2022-10-22T19:31:53.257Z,13.40
2022-10-22T19:34:21.578Z,13.40
2022-10-22T19:36:51.542Z,13.40
2022-10-22T19:39:18.387Z,13.40
2022-10-22T19:49:07.454Z,13.30
2022-10-22T19:51:35.592Z,13.20
2022-10-22T19:54:04.098Z,14.10
2022-10-22T19:56:32.786Z,13.20
2022-10-22T19:58:59.940Z,13.20
2022-10-22T20:01:27.607Z,13.20
2022-10-22T20:03:54.640Z,13.20
2022-10-22T20:08:53.738Z,13.10
2022-10-22T20:11:24.773Z,13.10
2022-10-22T20:13:52.611Z,13.10
2022-10-22T20:16:23.151Z,13.10
2022-10-22T20:18:50.230Z,13.10
2022-10-22T20:21:19.273Z,13.00
2022-10-22T20:23:46.643Z,13.00
2022-10-22T20:26:14.860Z,14.40
2022-10-22T20:28:41.835Z,14.50
2022-10-22T20:31:10.694Z,13.00
2022-10-22T20:33:37.557Z,13.00
2022-10-22T20:36:06.734Z,12.90
2022-10-22T20:38:34.102Z,13.00
2022-10-22T20:41:02.571Z,12.90
2022-10-22T20:43:30.897Z,12.90
2022-10-22T20:45:57.727Z,13.30
2022-10-22T20:48:31.060Z,12.90
2022-10-22T20:53:26.046Z,12.80
2022-10-22T20:55:57.190Z,12.80
2022-10-22T20:58:26.688Z,12.80
2022-10-22T21:00:55.280Z,12.80
2022-10-22T21:03:22.667Z,12.80
2022-10-22T21:08:17.582Z,12.70
2022-10-22T21:13:13.233Z,12.70
2022-10-22T21:15:40.257Z,12.70
2022-10-22T21:18:08.990Z,12.70
2022-10-22T21:23:03.033Z,12.70
2022-10-22T21:25:29.882Z,12.60
2022-10-22T21:27:56.738Z,13.30
2022-10-22T21:30:23.571Z,12.70
2022-10-22T21:32:51.654Z,12.70
2022-10-22T21:35:19.848Z,13.60
2022-10-22T21:40:13.942Z,12.70
2022-10-22T21:42:40.875Z,12.70
2022-10-22T21:45:12.378Z,12.70
2022-10-22T21:50:09.886Z,12.60
2022-10-22T21:52:38.375Z,12.60
2022-10-22T21:55:05.808Z,14.30
2022-10-22T21:57:32.687Z,12.50
2022-10-22T22:04:55.722Z,12.40
2022-10-22T22:07:22.572Z,12.40
2022-10-22T22:09:51.199Z,13.20
2022-10-22T22:14:45.708Z,12.30
2022-10-22T22:17:14.037Z,12.30
2022-10-22T22:19:41.176Z,12.30
2022-10-22T22:22:08.006Z,12.30
2022-10-22T22:24:34.788Z,12.20
2022-10-22T22:27:02.970Z,12.90
2022-10-22T22:29:29.744Z,12.90
2022-10-22T22:31:56.638Z,13.10
2022-10-22T22:34:23.421Z,12.90
2022-10-22T22:36:50.366Z,12.20
2022-10-22T22:39:18.945Z,12.20
2022-10-22T22:41:46.577Z,12.20
2022-10-22T22:44:15.250Z,13.40
2022-10-22T22:51:36.495Z,12.10
2022-10-22T22:54:03.554Z,12.10
2022-10-22T22:56:32.114Z,13.60
2022-10-22T22:58:59.017Z,12.10
2022-10-22T23:01:29.119Z,12.10
2022-10-22T23:03:57.486Z,14.00
2022-10-22T23:06:25.520Z,12.00
2022-10-22T23:08:53.700Z,11.90
2022-10-22T23:11:21.798Z,11.90
2022-10-22T23:13:52.410Z,13.50
2022-10-22T23:16:22.981Z,11.90
2022-10-22T23:18:52.737Z,13.70
2022-10-22T23:21:22.469Z,12.00
2022-10-22T23:23:51.489Z,12.00
2022-10-22T23:26:20.390Z,12.00
2022-10-22T23:28:47.554Z,12.00
2022-10-22T23:31:15.951Z,12.10
2022-10-22T23:33:43.410Z,12.00
2022-10-22T23:36:12.156Z,12.60
2022-10-22T23:38:40.565Z,13.80
2022-10-22T23:41:08.158Z,12.00
2022-10-22T23:43:38.591Z,12.00
2022-10-22T23:46:07.740Z,12.10
2022-10-22T23:48:34.979Z,12.30
2022-10-22T23:51:05.385Z,12.10
2022-10-22T23:53:33.664Z,12.70
2022-10-22T23:56:04.485Z,12.10
2022-10-22T23:58:31.417Z,12.10
